sensor_id;sensor_type;location;lat;lon;timestamp;P1;durP1;ratioP1;P2;durP2;ratioP2
966;SDS011;56108;48.730;9.304;2022-10-17T00:01:42;6.93;;;5.75;;
966;SDS011;56108;48.730;9.304;2022-10-17T00:03:51;6.55;;;5.95;;
966;SDS011;56108;48.730;9.304;2022-10-17T00:06:03;8.38;;;5.90;;
966;SDS011;56108;48.730;9.304;2022-10-17T00:08:13;6.50;;;5.57;;
966;SDS011;56108;48.730;9.304;2022-10-17T00:10:23;11.65;;;5.78;;
966;SDS011;56108;48.730;9.304;2022-10-17T00:12:32;9.20;;;5.60;;
966;SDS011;56108;48.730;9.304;2022-10-17T00:14:41;10.75;;;6.30;;
966;SDS011;56108;48.730;9.304;2022-10-17T00:16:52;6.50;;;4.85;;
966;SDS011;56108;48.730;9.304;2022-10-17T00:19:00;5.72;;;4.88;;
966;SDS011;56108;48.730;9.304;2022-10-17T00:21:13;7.95;;;5.88;;
966;SDS011;56108;48.730;9.304;2022-10-17T00:23:22;7.18;;;5.32;;
966;SDS011;56108;48.730;9.304;2022-10-17T00:25:32;5.10;;;4.32;;
966;SDS011;56108;48.730;9.304;2022-10-17T00:27:41;4.40;;;4.00;;
966;SDS011;56108;48.730;9.304;2022-10-17T00:29:51;5.32;;;4.63;;
966;SDS011;56108;48.730;9.304;2022-10-17T00:32:02;8.30;;;4.90;;
966;SDS011;56108;48.730;9.304;2022-10-17T00:34:10;5.03;;;4.53;;
966;SDS011;56108;48.730;9.304;2022-10-17T00:36:20;11.85;;;4.32;;
966;SDS011;56108;48.730;9.304;2022-10-17T00:38:30;7.30;;;4.40;;
966;SDS011;56108;48.730;9.304;2022-10-17T00:40:38;5.55;;;5.15;;
966;SDS011;56108;48.730;9.304;2022-10-17T00:42:47;6.10;;;5.10;;
966;SDS011;56108;48.730;9.304;2022-10-17T00:45:01;8.45;;;5.85;;
966;SDS011;56108;48.730;9.304;2022-10-17T00:47:17;5.97;;;5.28;;
966;SDS011;56108;48.730;9.304;2022-10-17T00:49:29;6.53;;;5.93;;
966;SDS011;56108;48.730;9.304;2022-10-17T00:51:42;7.43;;;6.00;;
966;SDS011;56108;48.730;9.304;2022-10-17T00:53:53;6.60;;;5.80;;
966;SDS011;56108;48.730;9.304;2022-10-17T00:56:02;11.07;;;5.55;;
966;SDS011;56108;48.730;9.304;2022-10-17T00:58:10;6.00;;;5.35;;
966;SDS011;56108;48.730;9.304;2022-10-17T01:00:19;7.95;;;5.82;;
966;SDS011;56108;48.730;9.304;2022-10-17T01:02:30;6.50;;;5.78;;
966;SDS011;56108;48.730;9.304;2022-10-17T01:04:39;6.47;;;6.07;;
966;SDS011;56108;48.730;9.304;2022-10-17T01:06:49;7.68;;;5.93;;
966;SDS011;56108;48.730;9.304;2022-10-17T01:08:57;6.97;;;6.38;;
966;SDS011;56108;48.730;9.304;2022-10-17T01:11:08;7.57;;;6.30;;
966;SDS011;56108;48.730;9.304;2022-10-17T01:13:23;7.95;;;5.90;;
966;SDS011;56108;48.730;9.304;2022-10-17T01:15:44;7.40;;;6.90;;
966;SDS011;56108;48.730;9.304;2022-10-17T01:18:07;6.93;;;6.32;;
966;SDS011;56108;48.730;9.304;2022-10-17T01:20:28;8.07;;;7.07;;
966;SDS011;56108;48.730;9.304;2022-10-17T01:22:54;8.27;;;7.20;;
966;SDS011;56108;48.730;9.304;2022-10-17T01:25:22;7.20;;;6.60;;
966;SDS011;56108;48.730;9.304;2022-10-17T01:27:49;7.50;;;6.75;;
966;SDS011;56108;48.730;9.304;2022-10-17T01:32:46;7.30;;;6.80;;
966;SDS011;56108;48.730;9.304;2022-10-17T01:35:03;6.63;;;6.13;;
966;SDS011;56108;48.730;9.304;2022-10-17T01:37:18;7.10;;;6.32;;
966;SDS011;56108;48.730;9.304;2022-10-17T01:39:37;8.32;;;6.70;;
966;SDS011;56108;48.730;9.304;2022-10-17T01:41:55;7.63;;;7.07;;
966;SDS011;56108;48.730;9.304;2022-10-17T01:44:09;11.93;;;10.77;;
966;SDS011;56108;48.730;9.304;2022-10-17T01:46:23;12.38;;;8.82;;
966;SDS011;56108;48.730;9.304;2022-10-17T01:48:38;11.18;;;10.00;;
966;SDS011;56108;48.730;9.304;2022-10-17T01:50:50;11.07;;;10.07;;
966;SDS011;56108;48.730;9.304;2022-10-17T01:53:05;9.98;;;9.07;;
966;SDS011;56108;48.730;9.304;2022-10-17T01:55:20;10.20;;;9.30;;
966;SDS011;56108;48.730;9.304;2022-10-17T01:57:33;10.10;;;8.55;;
966;SDS011;56108;48.730;9.304;2022-10-17T01:59:48;11.65;;;10.77;;
966;SDS011;56108;48.730;9.304;2022-10-17T02:02:16;11.95;;;9.02;;
966;SDS011;56108;48.730;9.304;2022-10-17T02:04:29;10.55;;;9.27;;
966;SDS011;56108;48.730;9.304;2022-10-17T02:06:37;9.98;;;9.13;;
966;SDS011;56108;48.730;9.304;2022-10-17T02:08:49;9.90;;;8.90;;
966;SDS011;56108;48.730;9.304;2022-10-17T02:10:59;11.77;;;8.85;;
966;SDS011;56108;48.730;9.304;2022-10-17T02:15:45;10.43;;;8.23;;
966;SDS011;56108;48.730;9.304;2022-10-17T02:18:13;12.20;;;8.75;;
966;SDS011;56108;48.730;9.304;2022-10-17T02:20:36;9.40;;;8.50;;
966;SDS011;56108;48.730;9.304;2022-10-17T02:22:54;11.02;;;8.30;;
966;SDS011;56108;48.730;9.304;2022-10-17T02:25:07;8.68;;;7.97;;
966;SDS011;56108;48.730;9.304;2022-10-17T02:27:23;10.13;;;8.95;;
966;SDS011;56108;48.730;9.304;2022-10-17T02:29:46;8.50;;;7.70;;
966;SDS011;56108;48.730;9.304;2022-10-17T02:31:57;8.82;;;8.02;;
966;SDS011;56108;48.730;9.304;2022-10-17T02:34:11;10.65;;;9.05;;
966;SDS011;56108;48.730;9.304;2022-10-17T02:36:28;16.08;;;9.95;;
966;SDS011;56108;48.730;9.304;2022-10-17T02:38:41;9.48;;;8.40;;
966;SDS011;56108;48.730;9.304;2022-10-17T02:40:52;9.93;;;9.02;;
966;SDS011;56108;48.730;9.304;2022-10-17T02:43:01;10.30;;;9.45;;
966;SDS011;56108;48.730;9.304;2022-10-17T02:45:09;9.40;;;8.55;;
966;SDS011;56108;48.730;9.304;2022-10-17T02:47:21;9.80;;;8.80;;
966;SDS011;56108;48.730;9.304;2022-10-17T02:49:35;9.80;;;8.77;;
966;SDS011;56108;48.730;9.304;2022-10-17T02:51:50;12.48;;;9.15;;
966;SDS011;56108;48.730;9.304;2022-10-17T02:54:04;10.40;;;9.60;;
966;SDS011;56108;48.730;9.304;2022-10-17T02:56:18;10.77;;;9.32;;
966;SDS011;56108;48.730;9.304;2022-10-17T02:58:30;13.00;;;11.80;;
966;SDS011;56108;48.730;9.304;2022-10-17T03:00:40;12.63;;;11.52;;
966;SDS011;56108;48.730;9.304;2022-10-17T03:02:50;14.32;;;11.93;;
966;SDS011;56108;48.730;9.304;2022-10-17T03:05:00;12.73;;;11.60;;
966;SDS011;56108;48.730;9.304;2022-10-17T03:07:11;12.57;;;11.18;;
966;SDS011;56108;48.730;9.304;2022-10-17T03:09:20;13.68;;;10.85;;
966;SDS011;56108;48.730;9.304;2022-10-17T03:11:29;11.48;;;10.35;;
966;SDS011;56108;48.730;9.304;2022-10-17T03:13:37;12.40;;;11.32;;
966;SDS011;56108;48.730;9.304;2022-10-17T03:15:46;14.32;;;12.82;;
966;SDS011;56108;48.730;9.304;2022-10-17T03:17:56;16.95;;;14.25;;
966;SDS011;56108;48.730;9.304;2022-10-17T03:20:05;18.67;;;16.73;;
966;SDS011;56108;48.730;9.304;2022-10-17T03:22:17;15.15;;;13.85;;
966;SDS011;56108;48.730;9.304;2022-10-17T03:24:26;16.13;;;14.82;;
966;SDS011;56108;48.730;9.304;2022-10-17T03:26:35;12.98;;;11.88;;
966;SDS011;56108;48.730;9.304;2022-10-17T03:28:44;12.13;;;10.95;;
966;SDS011;56108;48.730;9.304;2022-10-17T03:30:58;13.13;;;10.40;;
966;SDS011;56108;48.730;9.304;2022-10-17T03:33:06;10.90;;;9.80;;
966;SDS011;56108;48.730;9.304;2022-10-17T03:35:15;10.75;;;9.63;;
966;SDS011;56108;48.730;9.304;2022-10-17T03:37:30;11.70;;;10.60;;
966;SDS011;56108;48.730;9.304;2022-10-17T03:39:38;13.93;;;10.80;;
966;SDS011;56108;48.730;9.304;2022-10-17T03:41:46;11.82;;;10.55;;
966;SDS011;56108;48.730;9.304;2022-10-17T03:43:55;10.73;;;9.63;;
966;SDS011;56108;48.730;9.304;2022-10-17T03:46:04;11.23;;;10.23;;
966;SDS011;56108;48.730;9.304;2022-10-17T03:48:14;11.52;;;10.52;;
966;SDS011;56108;48.730;9.304;2022-10-17T03:50:23;12.88;;;11.77;;
966;SDS011;56108;48.730;9.304;2022-10-17T03:52:35;12.55;;;11.43;;
966;SDS011;56108;48.730;9.304;2022-10-17T03:54:43;10.40;;;9.40;;
966;SDS011;56108;48.730;9.304;2022-10-17T03:56:54;10.88;;;9.75;;
966;SDS011;56108;48.730;9.304;2022-10-17T03:59:02;9.88;;;8.98;;
966;SDS011;56108;48.730;9.304;2022-10-17T04:01:14;10.40;;;9.40;;
966;SDS011;56108;48.730;9.304;2022-10-17T04:03:25;10.27;;;9.48;;
966;SDS011;56108;48.730;9.304;2022-10-17T04:05:34;9.80;;;8.25;;
966;SDS011;56108;48.730;9.304;2022-10-17T04:07:45;14.13;;;10.02;;
966;SDS011;56108;48.730;9.304;2022-10-17T04:09:57;13.38;;;11.95;;
966;SDS011;56108;48.730;9.304;2022-10-17T04:12:05;12.00;;;9.55;;
966;SDS011;56108;48.730;9.304;2022-10-17T04:14:14;10.63;;;9.63;;
966;SDS011;56108;48.730;9.304;2022-10-17T04:16:22;11.82;;;10.45;;
966;SDS011;56108;48.730;9.304;2022-10-17T04:18:37;11.55;;;9.73;;
966;SDS011;56108;48.730;9.304;2022-10-17T04:20:46;10.63;;;9.70;;
966;SDS011;56108;48.730;9.304;2022-10-17T04:22:57;11.93;;;9.98;;
966;SDS011;56108;48.730;9.304;2022-10-17T04:25:06;10.55;;;9.43;;
966;SDS011;56108;48.730;9.304;2022-10-17T04:27:18;13.18;;;9.20;;
966;SDS011;56108;48.730;9.304;2022-10-17T04:29:26;11.55;;;9.85;;
966;SDS011;56108;48.730;9.304;2022-10-17T04:31:42;10.00;;;9.07;;
966;SDS011;56108;48.730;9.304;2022-10-17T04:33:56;9.80;;;8.80;;
966;SDS011;56108;48.730;9.304;2022-10-17T04:36:05;10.23;;;9.30;;
966;SDS011;56108;48.730;9.304;2022-10-17T04:38:17;11.05;;;10.05;;
966;SDS011;56108;48.730;9.304;2022-10-17T04:40:31;14.35;;;10.90;;
966;SDS011;56108;48.730;9.304;2022-10-17T04:42:40;10.05;;;9.13;;
966;SDS011;56108;48.730;9.304;2022-10-17T04:44:52;14.88;;;11.00;;
966;SDS011;56108;48.730;9.304;2022-10-17T04:47:02;10.13;;;9.07;;
966;SDS011;56108;48.730;9.304;2022-10-17T04:49:10;11.75;;;10.65;;
966;SDS011;56108;48.730;9.304;2022-10-17T04:51:22;10.80;;;9.70;;
966;SDS011;56108;48.730;9.304;2022-10-17T04:53:57;11.73;;;10.73;;
966;SDS011;56108;48.730;9.304;2022-10-17T04:56:07;11.30;;;10.30;;
966;SDS011;56108;48.730;9.304;2022-10-17T04:58:19;13.07;;;9.90;;
966;SDS011;56108;48.730;9.304;2022-10-17T05:00:29;12.98;;;10.85;;
966;SDS011;56108;48.730;9.304;2022-10-17T05:02:42;17.02;;;10.52;;
966;SDS011;56108;48.730;9.304;2022-10-17T05:04:51;13.50;;;10.43;;
966;SDS011;56108;48.730;9.304;2022-10-17T05:06:59;10.70;;;9.80;;
966;SDS011;56108;48.730;9.304;2022-10-17T05:09:20;15.05;;;9.98;;
966;SDS011;56108;48.730;9.304;2022-10-17T05:11:28;11.38;;;9.88;;
966;SDS011;56108;48.730;9.304;2022-10-17T05:13:37;9.90;;;9.07;;
966;SDS011;56108;48.730;9.304;2022-10-17T05:15:46;10.55;;;9.55;;
966;SDS011;56108;48.730;9.304;2022-10-17T05:17:54;10.02;;;9.00;;
966;SDS011;56108;48.730;9.304;2022-10-17T05:20:05;11.23;;;10.02;;
966;SDS011;56108;48.730;9.304;2022-10-17T05:22:16;11.85;;;10.68;;
966;SDS011;56108;48.730;9.304;2022-10-17T05:24:28;9.93;;;8.93;;
966;SDS011;56108;48.730;9.304;2022-10-17T05:26:36;10.95;;;9.95;;
966;SDS011;56108;48.730;9.304;2022-10-17T05:28:45;11.68;;;10.48;;
966;SDS011;56108;48.730;9.304;2022-10-17T05:31:01;11.68;;;9.68;;
966;SDS011;56108;48.730;9.304;2022-10-17T05:33:15;12.15;;;10.45;;
966;SDS011;56108;48.730;9.304;2022-10-17T05:35:26;10.73;;;9.70;;
966;SDS011;56108;48.730;9.304;2022-10-17T05:37:34;12.50;;;9.88;;
966;SDS011;56108;48.730;9.304;2022-10-17T05:39:45;11.10;;;10.10;;
966;SDS011;56108;48.730;9.304;2022-10-17T05:41:56;14.40;;;9.90;;
966;SDS011;56108;48.730;9.304;2022-10-17T05:44:05;11.10;;;10.00;;
966;SDS011;56108;48.730;9.304;2022-10-17T05:46:19;10.23;;;9.20;;
966;SDS011;56108;48.730;9.304;2022-10-17T05:48:28;12.85;;;9.52;;
966;SDS011;56108;48.730;9.304;2022-10-17T05:50:38;9.85;;;8.95;;
966;SDS011;56108;48.730;9.304;2022-10-17T05:52:52;9.70;;;8.80;;
966;SDS011;56108;48.730;9.304;2022-10-17T05:55:04;9.65;;;8.73;;
966;SDS011;56108;48.730;9.304;2022-10-17T05:57:13;10.00;;;8.60;;
966;SDS011;56108;48.730;9.304;2022-10-17T05:59:23;11.45;;;9.10;;
966;SDS011;56108;48.730;9.304;2022-10-17T06:01:43;9.23;;;8.52;;
966;SDS011;56108;48.730;9.304;2022-10-17T06:03:52;9.65;;;8.77;;
966;SDS011;56108;48.730;9.304;2022-10-17T06:06:02;9.85;;;8.85;;
966;SDS011;56108;48.730;9.304;2022-10-17T06:08:13;9.20;;;8.40;;
966;SDS011;56108;48.730;9.304;2022-10-17T06:10:24;9.13;;;8.18;;
966;SDS011;56108;48.730;9.304;2022-10-17T06:12:33;9.15;;;8.25;;
966;SDS011;56108;48.730;9.304;2022-10-17T06:14:41;9.02;;;8.23;;
966;SDS011;56108;48.730;9.304;2022-10-17T06:16:50;9.35;;;8.15;;
966;SDS011;56108;48.730;9.304;2022-10-17T06:18:59;11.43;;;8.55;;
966;SDS011;56108;48.730;9.304;2022-10-17T06:21:10;8.90;;;8.00;;
966;SDS011;56108;48.730;9.304;2022-10-17T06:23:23;8.60;;;7.80;;
966;SDS011;56108;48.730;9.304;2022-10-17T06:25:39;10.57;;;8.85;;
966;SDS011;56108;48.730;9.304;2022-10-17T06:27:48;16.73;;;8.80;;
966;SDS011;56108;48.730;9.304;2022-10-17T06:30:18;16.23;;;9.20;;
966;SDS011;56108;48.730;9.304;2022-10-17T06:32:26;10.30;;;8.15;;
966;SDS011;56108;48.730;9.304;2022-10-17T06:34:35;9.25;;;7.80;;
966;SDS011;56108;48.730;9.304;2022-10-17T06:36:44;7.90;;;7.22;;
966;SDS011;56108;48.730;9.304;2022-10-17T06:38:54;8.98;;;8.07;;
966;SDS011;56108;48.730;9.304;2022-10-17T06:41:14;12.70;;;8.70;;
966;SDS011;56108;48.730;9.304;2022-10-17T06:43:23;9.63;;;8.00;;
966;SDS011;56108;48.730;9.304;2022-10-17T06:45:54;8.60;;;7.80;;
966;SDS011;56108;48.730;9.304;2022-10-17T06:48:15;16.92;;;8.35;;
966;SDS011;56108;48.730;9.304;2022-10-17T06:50:39;8.60;;;7.78;;
966;SDS011;56108;48.730;9.304;2022-10-17T06:52:52;8.80;;;7.60;;
966;SDS011;56108;48.730;9.304;2022-10-17T06:55:19;8.48;;;7.57;;
966;SDS011;56108;48.730;9.304;2022-10-17T06:57:48;8.10;;;7.40;;
966;SDS011;56108;48.730;9.304;2022-10-17T07:00:18;10.00;;;7.13;;
966;SDS011;56108;48.730;9.304;2022-10-17T07:02:30;12.07;;;7.93;;
966;SDS011;56108;48.730;9.304;2022-10-17T07:04:39;8.50;;;7.70;;
966;SDS011;56108;48.730;9.304;2022-10-17T07:06:49;9.75;;;8.18;;
966;SDS011;56108;48.730;9.304;2022-10-17T07:08:59;8.85;;;8.02;;
966;SDS011;56108;48.730;9.304;2022-10-17T07:11:14;9.68;;;8.88;;
966;SDS011;56108;48.730;9.304;2022-10-17T07:13:28;10.35;;;7.85;;
966;SDS011;56108;48.730;9.304;2022-10-17T07:15:42;8.13;;;7.35;;
966;SDS011;56108;48.730;9.304;2022-10-17T07:17:50;7.75;;;6.90;;
966;SDS011;56108;48.730;9.304;2022-10-17T07:19:59;8.60;;;7.90;;
966;SDS011;56108;48.730;9.304;2022-10-17T07:22:10;8.40;;;6.97;;
966;SDS011;56108;48.730;9.304;2022-10-17T07:24:23;8.75;;;7.97;;
966;SDS011;56108;48.730;9.304;2022-10-17T07:26:38;9.07;;;7.75;;
966;SDS011;56108;48.730;9.304;2022-10-17T07:28:50;9.82;;;8.90;;
966;SDS011;56108;48.730;9.304;2022-10-17T07:31:22;9.15;;;8.20;;
966;SDS011;56108;48.730;9.304;2022-10-17T07:33:31;8.80;;;7.88;;
966;SDS011;56108;48.730;9.304;2022-10-17T07:35:39;8.18;;;7.47;;
966;SDS011;56108;48.730;9.304;2022-10-17T07:37:48;9.00;;;7.40;;
966;SDS011;56108;48.730;9.304;2022-10-17T07:39:57;7.88;;;6.55;;
966;SDS011;56108;48.730;9.304;2022-10-17T07:42:06;7.25;;;6.65;;
966;SDS011;56108;48.730;9.304;2022-10-17T07:44:18;7.63;;;6.95;;
966;SDS011;56108;48.730;9.304;2022-10-17T07:46:28;7.80;;;7.15;;
966;SDS011;56108;48.730;9.304;2022-10-17T07:48:37;8.93;;;7.10;;
966;SDS011;56108;48.730;9.304;2022-10-17T07:50:46;7.10;;;6.40;;
966;SDS011;56108;48.730;9.304;2022-10-17T07:52:55;7.82;;;7.13;;
966;SDS011;56108;48.730;9.304;2022-10-17T07:55:04;7.90;;;6.07;;
966;SDS011;56108;48.730;9.304;2022-10-17T07:57:13;11.10;;;7.28;;
966;SDS011;56108;48.730;9.304;2022-10-17T07:59:24;7.18;;;6.50;;
966;SDS011;56108;48.730;9.304;2022-10-17T08:01:33;6.90;;;6.30;;
966;SDS011;56108;48.730;9.304;2022-10-17T08:03:42;7.18;;;6.45;;
966;SDS011;56108;48.730;9.304;2022-10-17T08:05:53;7.68;;;6.78;;
966;SDS011;56108;48.730;9.304;2022-10-17T08:08:04;7.55;;;6.68;;
966;SDS011;56108;48.730;9.304;2022-10-17T08:10:13;6.70;;;6.10;;
966;SDS011;56108;48.730;9.304;2022-10-17T08:12:22;6.50;;;6.00;;
966;SDS011;56108;48.730;9.304;2022-10-17T08:14:33;6.95;;;6.38;;
966;SDS011;56108;48.730;9.304;2022-10-17T08:16:43;6.55;;;6.03;;
966;SDS011;56108;48.730;9.304;2022-10-17T08:18:51;6.63;;;6.03;;
966;SDS011;56108;48.730;9.304;2022-10-17T08:21:00;6.90;;;6.20;;
966;SDS011;56108;48.730;9.304;2022-10-17T08:23:09;6.03;;;5.45;;
966;SDS011;56108;48.730;9.304;2022-10-17T08:25:18;7.65;;;5.90;;
966;SDS011;56108;48.730;9.304;2022-10-17T08:27:27;6.65;;;6.10;;
966;SDS011;56108;48.730;9.304;2022-10-17T08:29:38;7.90;;;6.10;;
966;SDS011;56108;48.730;9.304;2022-10-17T08:31:46;6.40;;;5.80;;
966;SDS011;56108;48.730;9.304;2022-10-17T08:34:04;9.38;;;5.40;;
966;SDS011;56108;48.730;9.304;2022-10-17T08:36:13;6.18;;;5.53;;
966;SDS011;56108;48.730;9.304;2022-10-17T08:38:22;7.32;;;5.85;;
966;SDS011;56108;48.730;9.304;2022-10-17T08:40:31;6.03;;;5.30;;
966;SDS011;56108;48.730;9.304;2022-10-17T08:42:48;6.85;;;5.68;;
966;SDS011;56108;48.730;9.304;2022-10-17T08:45:09;6.10;;;5.50;;
966;SDS011;56108;48.730;9.304;2022-10-17T08:47:25;12.18;;;7.15;;
966;SDS011;56108;48.730;9.304;2022-10-17T08:49:37;7.03;;;6.35;;
966;SDS011;56108;48.730;9.304;2022-10-17T08:51:53;7.05;;;5.80;;
966;SDS011;56108;48.730;9.304;2022-10-17T08:54:08;5.97;;;5.38;;
966;SDS011;56108;48.730;9.304;2022-10-17T08:56:22;6.18;;;5.03;;
966;SDS011;56108;48.730;9.304;2022-10-17T08:58:53;4.80;;;4.32;;
966;SDS011;56108;48.730;9.304;2022-10-17T09:01:05;5.93;;;5.28;;
966;SDS011;56108;48.730;9.304;2022-10-17T09:03:29;5.43;;;4.45;;
966;SDS011;56108;48.730;9.304;2022-10-17T09:05:48;6.10;;;4.93;;
966;SDS011;56108;48.730;9.304;2022-10-17T09:08:06;6.25;;;4.65;;
966;SDS011;56108;48.730;9.304;2022-10-17T09:10:26;4.90;;;4.40;;
966;SDS011;56108;48.730;9.304;2022-10-17T09:12:46;4.50;;;4.20;;
966;SDS011;56108;48.730;9.304;2022-10-17T09:15:08;5.25;;;4.40;;
966;SDS011;56108;48.730;9.304;2022-10-17T09:17:33;7.73;;;4.90;;
966;SDS011;56108;48.730;9.304;2022-10-17T09:19:51;4.50;;;4.10;;
966;SDS011;56108;48.730;9.304;2022-10-17T09:22:08;4.97;;;4.17;;
966;SDS011;56108;48.730;9.304;2022-10-17T09:24:21;6.63;;;4.40;;
966;SDS011;56108;48.730;9.304;2022-10-17T09:26:34;6.33;;;4.50;;
966;SDS011;56108;48.730;9.304;2022-10-17T09:28:43;4.30;;;3.90;;
966;SDS011;56108;48.730;9.304;2022-10-17T09:31:00;5.90;;;4.30;;
966;SDS011;56108;48.730;9.304;2022-10-17T09:33:13;9.93;;;4.00;;
966;SDS011;56108;48.730;9.304;2022-10-17T09:35:39;5.27;;;4.87;;
966;SDS011;56108;48.730;9.304;2022-10-17T09:37:48;5.13;;;4.43;;
966;SDS011;56108;48.730;9.304;2022-10-17T09:39:58;4.20;;;3.90;;
966;SDS011;56108;48.730;9.304;2022-10-17T09:42:08;9.00;;;3.77;;
966;SDS011;56108;48.730;9.304;2022-10-17T09:44:21;5.07;;;4.67;;
966;SDS011;56108;48.730;9.304;2022-10-17T09:46:33;7.27;;;4.70;;
966;SDS011;56108;48.730;9.304;2022-10-17T09:48:47;4.50;;;4.10;;
966;SDS011;56108;48.730;9.304;2022-10-17T09:50:58;5.60;;;4.13;;
966;SDS011;56108;48.730;9.304;2022-10-17T09:53:26;4.73;;;4.23;;
966;SDS011;56108;48.730;9.304;2022-10-17T09:55:40;4.77;;;4.27;;
966;SDS011;56108;48.730;9.304;2022-10-17T09:57:55;5.33;;;4.40;;
966;SDS011;56108;48.730;9.304;2022-10-17T10:00:05;4.97;;;4.20;;
966;SDS011;56108;48.730;9.304;2022-10-17T10:02:18;5.03;;;4.60;;
966;SDS011;56108;48.730;9.304;2022-10-17T10:04:30;7.00;;;4.30;;
966;SDS011;56108;48.730;9.304;2022-10-17T10:07:02;4.90;;;4.40;;
966;SDS011;56108;48.730;9.304;2022-10-17T10:09:19;6.63;;;4.40;;
966;SDS011;56108;48.730;9.304;2022-10-17T10:11:44;8.03;;;4.47;;
966;SDS011;56108;48.730;9.304;2022-10-17T10:13:54;5.73;;;4.20;;
966;SDS011;56108;48.730;9.304;2022-10-17T10:16:19;6.30;;;4.60;;
966;SDS011;56108;48.730;9.304;2022-10-17T10:18:33;5.77;;;4.97;;
966;SDS011;56108;48.730;9.304;2022-10-17T10:20:45;7.17;;;4.73;;
966;SDS011;56108;48.730;9.304;2022-10-17T10:23:06;5.00;;;4.10;;
966;SDS011;56108;48.730;9.304;2022-10-17T10:25:21;4.50;;;4.10;;
966;SDS011;56108;48.730;9.304;2022-10-17T10:27:29;4.23;;;3.93;;
966;SDS011;56108;48.730;9.304;2022-10-17T10:29:39;6.40;;;4.83;;
966;SDS011;56108;48.730;9.304;2022-10-17T10:31:49;8.20;;;5.20;;
966;SDS011;56108;48.730;9.304;2022-10-17T10:33:59;10.10;;;4.70;;
966;SDS011;56108;48.730;9.304;2022-10-17T10:36:14;4.77;;;4.37;;
966;SDS011;56108;48.730;9.304;2022-10-17T10:38:25;6.10;;;4.40;;
966;SDS011;56108;48.730;9.304;2022-10-17T10:40:35;5.50;;;4.67;;
966;SDS011;56108;48.730;9.304;2022-10-17T10:42:51;7.67;;;5.00;;
966;SDS011;56108;48.730;9.304;2022-10-17T10:45:14;4.00;;;3.70;;
966;SDS011;56108;48.730;9.304;2022-10-17T10:47:50;4.17;;;3.87;;
966;SDS011;56108;48.730;9.304;2022-10-17T10:50:08;3.50;;;3.30;;
966;SDS011;56108;48.730;9.304;2022-10-17T10:52:31;5.53;;;3.90;;
966;SDS011;56108;48.730;9.304;2022-10-17T10:54:49;3.40;;;3.20;;
966;SDS011;56108;48.730;9.304;2022-10-17T10:57:03;3.20;;;3.00;;
966;SDS011;56108;48.730;9.304;2022-10-17T10:59:14;2.90;;;2.70;;
966;SDS011;56108;48.730;9.304;2022-10-17T11:01:28;4.10;;;3.27;;
966;SDS011;56108;48.730;9.304;2022-10-17T11:03:45;5.10;;;2.67;;
966;SDS011;56108;48.730;9.304;2022-10-17T11:06:03;3.03;;;2.33;;
966;SDS011;56108;48.730;9.304;2022-10-17T11:08:22;4.10;;;2.80;;
966;SDS011;56108;48.730;9.304;2022-10-17T11:10:37;2.93;;;2.77;;
966;SDS011;56108;48.730;9.304;2022-10-17T11:12:51;4.80;;;2.53;;
966;SDS011;56108;48.730;9.304;2022-10-17T11:15:08;3.33;;;3.03;;
966;SDS011;56108;48.730;9.304;2022-10-17T11:17:29;4.07;;;3.67;;
966;SDS011;56108;48.730;9.304;2022-10-17T11:19:43;8.50;;;5.57;;
966;SDS011;56108;48.730;9.304;2022-10-17T11:22:01;5.20;;;4.30;;
966;SDS011;56108;48.730;9.304;2022-10-17T11:24:20;8.33;;;5.20;;
966;SDS011;56108;48.730;9.304;2022-10-17T11:26:32;6.67;;;4.07;;
966;SDS011;56108;48.730;9.304;2022-10-17T11:28:47;4.90;;;4.50;;
966;SDS011;56108;48.730;9.304;2022-10-17T11:30:56;4.60;;;3.80;;
966;SDS011;56108;48.730;9.304;2022-10-17T11:33:12;4.60;;;4.20;;
966;SDS011;56108;48.730;9.304;2022-10-17T11:35:25;4.07;;;3.70;;
966;SDS011;56108;48.730;9.304;2022-10-17T11:37:38;4.17;;;3.33;;
966;SDS011;56108;48.730;9.304;2022-10-17T11:39:56;4.73;;;4.23;;
966;SDS011;56108;48.730;9.304;2022-10-17T11:42:09;3.30;;;3.00;;
966;SDS011;56108;48.730;9.304;2022-10-17T11:44:21;5.30;;;3.40;;
966;SDS011;56108;48.730;9.304;2022-10-17T11:46:33;4.40;;;3.93;;
966;SDS011;56108;48.730;9.304;2022-10-17T11:48:54;9.10;;;3.60;;
966;SDS011;56108;48.730;9.304;2022-10-17T11:51:08;3.93;;;3.40;;
966;SDS011;56108;48.730;9.304;2022-10-17T11:53:43;5.70;;;3.30;;
966;SDS011;56108;48.730;9.304;2022-10-17T11:56:00;3.70;;;2.90;;
966;SDS011;56108;48.730;9.304;2022-10-17T12:00:51;5.43;;;3.00;;
966;SDS011;56108;48.730;9.304;2022-10-17T12:03:12;2.67;;;2.50;;
966;SDS011;56108;48.730;9.304;2022-10-17T12:05:32;4.10;;;2.60;;
966;SDS011;56108;48.730;9.304;2022-10-17T12:07:46;5.60;;;3.03;;
966;SDS011;56108;48.730;9.304;2022-10-17T12:09:58;4.40;;;2.73;;
966;SDS011;56108;48.730;9.304;2022-10-17T12:12:25;3.57;;;2.50;;
966;SDS011;56108;48.730;9.304;2022-10-17T12:14:37;6.00;;;2.13;;
966;SDS011;56108;48.730;9.304;2022-10-17T12:16:47;3.70;;;2.03;;
966;SDS011;56108;48.730;9.304;2022-10-17T12:21:28;2.00;;;1.80;;
966;SDS011;56108;48.730;9.304;2022-10-17T12:24:12;3.13;;;2.27;;
966;SDS011;56108;48.730;9.304;2022-10-17T12:26:35;2.03;;;1.83;;
966;SDS011;56108;48.730;9.304;2022-10-17T12:28:46;2.67;;;2.30;;
966;SDS011;56108;48.730;9.304;2022-10-17T12:30:57;2.70;;;2.37;;
966;SDS011;56108;48.730;9.304;2022-10-17T12:33:16;2.90;;;2.30;;
966;SDS011;56108;48.730;9.304;2022-10-17T12:35:28;2.10;;;2.00;;
966;SDS011;56108;48.730;9.304;2022-10-17T12:42:56;3.07;;;2.43;;
966;SDS011;56108;48.730;9.304;2022-10-17T12:47:55;2.53;;;2.30;;
966;SDS011;56108;48.730;9.304;2022-10-17T12:52:57;2.70;;;1.97;;
966;SDS011;56108;48.730;9.304;2022-10-17T12:55:12;5.70;;;2.90;;
966;SDS011;56108;48.730;9.304;2022-10-17T12:57:26;2.50;;;2.30;;
966;SDS011;56108;48.730;9.304;2022-10-17T12:59:42;4.87;;;2.60;;
966;SDS011;56108;48.730;9.304;2022-10-17T13:01:52;4.93;;;2.10;;
966;SDS011;56108;48.730;9.304;2022-10-17T13:04:07;2.60;;;2.40;;
966;SDS011;56108;48.730;9.304;2022-10-17T13:06:18;3.23;;;2.40;;
966;SDS011;56108;48.730;9.304;2022-10-17T13:08:30;4.80;;;2.37;;
966;SDS011;56108;48.730;9.304;2022-10-17T13:10:40;2.83;;;2.63;;
966;SDS011;56108;48.730;9.304;2022-10-17T13:12:59;2.57;;;2.30;;
966;SDS011;56108;48.730;9.304;2022-10-17T13:15:14;2.50;;;2.30;;
966;SDS011;56108;48.730;9.304;2022-10-17T13:17:25;4.70;;;2.33;;
966;SDS011;56108;48.730;9.304;2022-10-17T13:19:41;5.17;;;2.83;;
966;SDS011;56108;48.730;9.304;2022-10-17T13:21:51;4.10;;;2.60;;
966;SDS011;56108;48.730;9.304;2022-10-17T13:24:18;2.97;;;2.70;;
966;SDS011;56108;48.730;9.304;2022-10-17T13:26:28;4.07;;;2.53;;
966;SDS011;56108;48.730;9.304;2022-10-17T13:28:37;4.53;;;2.57;;
966;SDS011;56108;48.730;9.304;2022-10-17T13:30:45;4.00;;;2.40;;
966;SDS011;56108;48.730;9.304;2022-10-17T13:32:57;3.43;;;2.57;;
966;SDS011;56108;48.730;9.304;2022-10-17T13:35:09;3.97;;;2.47;;
966;SDS011;56108;48.730;9.304;2022-10-17T13:37:20;3.13;;;2.40;;
966;SDS011;56108;48.730;9.304;2022-10-17T13:39:31;3.10;;;2.63;;
966;SDS011;56108;48.730;9.304;2022-10-17T13:42:04;3.23;;;2.43;;
966;SDS011;56108;48.730;9.304;2022-10-17T13:44:21;2.97;;;2.53;;
966;SDS011;56108;48.730;9.304;2022-10-17T13:46:32;5.47;;;2.10;;
966;SDS011;56108;48.730;9.304;2022-10-17T13:48:42;2.63;;;2.10;;
966;SDS011;56108;48.730;9.304;2022-10-17T13:50:55;2.07;;;1.90;;
966;SDS011;56108;48.730;9.304;2022-10-17T13:53:16;62.47;;;56.07;;
966;SDS011;56108;48.730;9.304;2022-10-17T13:55:36;42.10;;;37.83;;
966;SDS011;56108;48.730;9.304;2022-10-17T13:57:45;90.73;;;82.13;;
966;SDS011;56108;48.730;9.304;2022-10-17T13:59:57;56.60;;;50.63;;
966;SDS011;56108;48.730;9.304;2022-10-17T14:02:18;67.03;;;59.73;;
966;SDS011;56108;48.730;9.304;2022-10-17T14:04:28;90.57;;;81.10;;
966;SDS011;56108;48.730;9.304;2022-10-17T14:06:58;38.27;;;34.40;;